Time;durP1;ratioP1;P1;durP2;ratioP2;P2;SDS_P1;SDS_P2;PMS_P1;PMS_P2;Temp;Humidity;BMP_temperature;BMP_pressure;BME280_temperature;BME280_humidity;BME280_pressure;Samples;Min_cycle;Max_cycle;Signal;HPM_P1;HPM_P2
2021/09/02 00:02:03;;;;;;;7.47;4.65;;;;;;;13.16;69.55;98538.75;5137948;27;20027;-64
2021/09/02 00:04:29;;;;;;;6.60;4.38;;;;;;;13.17;69.54;98540.41;5149528;27;20030;-63
2021/09/02 00:06:56;;;;;;;7.65;3.85;;;;;;;13.16;69.47;98533.38;5138187;27;20467;-62
2021/09/02 00:09:21;;;;;;;5.47;3.90;;;;;;;13.17;68.95;98536.88;5132197;27;20439;-64
2021/09/02 00:11:47;;;;;;;6.57;3.92;;;;;;;13.19;68.87;98533.03;5139148;27;20022;-63
2021/09/02 00:14:13;;;;;;;7.10;4.57;;;;;;;13.14;68.83;98538.09;5135182;27;20041;-61
2021/09/02 00:16:38;;;;;;;6.95;4.13;;;;;;;13.07;68.99;98529.84;5149328;27;20023;-62
2021/09/02 00:19:03;;;;;;;6.80;3.92;;;;;;;13.09;69.10;98531.53;5139676;27;20019;-63
2021/09/02 00:21:29;;;;;;;8.95;4.35;;;;;;;12.85;68.92;98499.16;5141583;27;20464;-62
2021/09/02 00:23:54;;;;;;;5.65;4.10;;;;;;;13.10;68.86;98534.03;5146307;27;20049;-63
2021/09/02 00:26:20;;;;;;;6.63;4.13;;;;;;;13.07;68.53;98527.19;5135804;27;20035;-61
2021/09/02 00:28:46;;;;;;;6.15;3.85;;;;;;;13.13;68.78;98533.69;5142127;27;20397;-62
2021/09/02 00:31:11;;;;;;;5.70;3.92;;;;;;;13.14;68.69;98537.22;5127410;27;20050;-61
2021/09/02 00:33:37;;;;;;;5.72;3.83;;;;;;;13.09;68.23;98531.53;5141015;27;20034;-62
2021/09/02 00:36:02;;;;;;;6.85;4.18;;;;;;;13.03;68.42;98533.06;5147002;27;20026;-62
2021/09/02 00:38:28;;;;;;;4.78;3.42;;;;;;;13.00;68.75;98526.16;5117240;27;20123;-62
2021/09/02 00:40:54;;;;;;;5.45;3.55;;;;;;;12.99;68.57;98516.44;5146748;27;20092;-62
2021/09/02 00:43:19;;;;;;;8.27;4.28;;;;;;;12.97;68.65;98523.81;5141549;27;20098;-63
2021/09/02 00:45:45;;;;;;;4.82;3.50;;;;;;;12.82;68.61;98488.78;5139393;27;20050;-62
2021/09/02 00:48:10;;;;;;;8.13;4.15;;;;;;;13.01;68.98;98521.66;5148212;27;20792;-61
2021/09/02 00:50:36;;;;;;;6.70;3.92;;;;;;;12.97;69.02;98528.38;5135141;27;20484;-61
2021/09/02 00:53:03;;;;;;;5.10;3.85;;;;;;;12.87;69.60;98517.81;5145716;27;20384;-61
2021/09/02 00:55:30;;;;;;;6.85;4.00;;;;;;;12.80;69.90;98532.94;5142016;27;20034;-61
2021/09/02 00:57:56;;;;;;;5.10;3.80;;;;;;;12.46;70.31;98490.00;5135240;27;20035;-62
2021/09/02 01:00:21;;;;;;;5.60;4.07;;;;;;;12.63;70.70;98523.03;5147602;27;20026;-62
2021/09/02 01:02:48;;;;;;;5.80;4.07;;;;;;;12.66;70.65;98521.03;5136659;27;20114;-62
2021/09/02 01:05:16;;;;;;;6.13;3.95;;;;;;;12.73;70.57;98525.53;5144125;27;20019;-62
2021/09/02 01:07:42;;;;;;;7.20;4.50;;;;;;;12.75;70.59;98525.38;5144267;27;20031;-61
2021/09/02 01:10:08;;;;;;;6.75;3.80;;;;;;;12.81;70.26;98531.94;5135868;27;20038;-63
2021/09/02 01:12:42;;;;;;;6.75;4.45;;;;;;;12.93;69.97;98530.56;5136793;27;20079;-62
2021/09/02 01:15:17;;;;;;;7.03;4.07;;;;;;;13.01;69.65;98530.53;5135395;27;20384;-61
2021/09/02 01:17:44;;;;;;;6.97;4.13;;;;;;;13.10;69.24;98543.97;5136031;27;20037;-60
2021/09/02 01:20:12;;;;;;;5.05;3.95;;;;;;;13.19;69.17;98540.22;5135439;27;20590;-61
2021/09/02 01:22:38;;;;;;;6.97;4.30;;;;;;;13.05;68.90;98515.75;5148133;27;20516;-60
2021/09/02 01:25:08;;;;;;;6.78;3.95;;;;;;;13.19;68.58;98546.44;5138698;27;20133;-61
2021/09/02 01:27:34;;;;;;;5.82;4.20;;;;;;;13.16;68.69;98543.25;5140599;27;20046;-61
2021/09/02 01:30:08;;;;;;;6.85;4.30;;;;;;;13.13;68.49;98541.75;5146296;27;20547;-62
2021/09/02 01:32:36;;;;;;;6.32;4.07;;;;;;;13.11;68.08;98542.94;5134205;27;20062;-61
2021/09/02 01:35:05;;;;;;;5.72;4.30;;;;;;;13.20;68.19;98553.50;5145230;27;20136;-61
2021/09/02 01:37:44;;;;;;;7.47;4.32;;;;;;;13.26;68.21;98543.91;5142124;27;20029;-61
2021/09/02 01:40:14;;;;;;;8.77;4.50;;;;;;;13.28;68.10;98549.09;5135386;27;20027;-62
2021/09/02 01:42:40;;;;;;;5.88;4.28;;;;;;;13.25;68.36;98539.53;5118119;27;20118;-62
2021/09/02 01:45:06;;;;;;;5.93;4.28;;;;;;;13.17;68.02;98545.78;5144627;27;20429;-61
2021/09/02 01:47:32;;;;;;;6.93;4.47;;;;;;;13.27;68.25;98556.34;5141198;27;20528;-62
2021/09/02 01:50:06;;;;;;;6.30;4.10;;;;;;;13.30;67.87;98550.63;5137239;27;20034;-59
2021/09/02 01:52:32;;;;;;;4.90;3.90;;;;;;;13.25;67.94;98547.59;5146720;27;20041;-62
2021/09/02 01:54:57;;;;;;;8.65;4.65;;;;;;;13.35;67.92;98550.09;5137442;27;20023;-62
2021/09/02 01:57:23;;;;;;;6.13;4.55;;;;;;;13.35;67.72;98547.41;5149939;27;20034;-62
2021/09/02 01:59:48;;;;;;;5.68;4.00;;;;;;;13.39;67.32;98547.91;5138001;27;20030;-63
2021/09/02 02:02:13;;;;;;;4.75;3.72;;;;;;;13.38;66.91;98563.19;5147678;27;20038;-64
2021/09/02 02:04:40;;;;;;;6.25;4.53;;;;;;;13.39;67.01;98564.88;5134511;27;20432;-63
2021/09/02 02:07:05;;;;;;;8.02;4.20;;;;;;;13.38;67.37;98562.34;5143959;27;20027;-62
2021/09/02 02:09:31;;;;;;;5.75;4.20;;;;;;;13.40;67.34;98565.69;5140602;27;20452;-62
2021/09/02 02:11:56;;;;;;;6.10;4.53;;;;;;;13.37;67.45;98560.69;5136373;27;20747;-62
2021/09/02 02:14:22;;;;;;;7.68;4.43;;;;;;;13.44;67.32;98561.69;5148046;27;20034;-63
2021/09/02 02:16:47;;;;;;;6.32;4.18;;;;;;;13.47;67.27;98550.56;5135387;27;20467;-62
2021/09/02 02:19:13;;;;;;;7.13;4.50;;;;;;;13.47;67.30;98559.50;5142912;27;20053;-62
2021/09/02 02:21:38;;;;;;;7.05;4.78;;;;;;;13.48;67.45;98554.94;5142599;27;20026;-62
2021/09/02 02:24:04;;;;;;;6.93;4.60;;;;;;;13.48;67.43;98561.16;5135886;27;20055;-61
2021/09/02 02:26:30;;;;;;;5.68;4.22;;;;;;;13.48;67.48;98560.31;5147249;27;20103;-63
2021/09/02 02:28:55;;;;;;;7.47;4.95;;;;;;;13.47;67.25;98564.03;5135855;27;20037;-61
2021/09/02 02:31:21;;;;;;;7.10;4.45;;;;;;;13.45;67.08;98563.34;5141442;27;20059;-68
2021/09/02 02:33:46;;;;;;;7.40;4.50;;;;;;;13.46;67.33;98575.78;5143069;27;20095;-61
2021/09/02 02:36:12;;;;;;;5.55;4.13;;;;;;;13.36;66.99;98567.88;5134474;27;20030;-61
2021/09/02 02:38:37;;;;;;;9.05;4.45;;;;;;;13.25;67.22;98552.97;5147528;27;20040;-62
2021/09/02 02:41:03;;;;;;;6.20;4.40;;;;;;;13.28;67.24;98574.16;5137595;27;20041;-61
2021/09/02 02:43:28;;;;;;;6.20;4.25;;;;;;;13.30;67.68;98563.22;5141308;27;20023;-62
2021/09/02 02:45:57;;;;;;;6.63;4.22;;;;;;;13.31;67.03;98563.06;5148914;27;20461;-60
2021/09/02 02:48:22;;;;;;;4.82;4.00;;;;;;;13.34;67.06;98562.69;5153752;27;20586;-65
2021/09/02 02:50:48;;;;;;;9.52;4.00;;;;;;;13.41;66.85;98560.16;5139310;27;20462;-61
2021/09/02 02:53:13;;;;;;;6.28;4.10;;;;;;;13.41;67.48;98570.06;5152503;27;20043;-61
2021/09/02 02:55:39;;;;;;;6.43;4.03;;;;;;;13.38;67.32;98567.72;5154596;27;20031;-61
2021/09/02 02:58:04;;;;;;;8.55;4.03;;;;;;;13.39;67.18;98572.94;5156116;27;20034;-60
2021/09/02 03:00:30;;;;;;;6.60;3.95;;;;;;;13.40;67.21;98577.31;5137555;27;20494;-62
2021/09/02 03:02:55;;;;;;;8.60;4.30;;;;;;;13.32;66.91;98564.72;5141617;27;20498;-61
2021/09/02 03:05:21;;;;;;;5.47;3.88;;;;;;;13.47;67.01;98574.78;5132682;27;20391;-68
2021/09/02 03:07:46;;;;;;;7.25;3.75;;;;;;;13.53;66.54;98579.47;5141401;27;20031;-61
2021/09/02 03:10:12;;;;;;;7.25;3.83;;;;;;;13.56;66.83;98581.81;5150859;27;20383;-61
2021/09/02 03:12:37;;;;;;;7.03;3.80;;;;;;;13.60;66.35;98579.59;5119004;27;20099;-61
2021/09/02 03:15:04;;;;;;;4.70;3.47;;;;;;;13.64;65.97;98579.09;5147446;27;20653;-60
2021/09/02 03:17:30;;;;;;;5.97;3.80;;;;;;;13.63;65.93;98584.66;5144219;27;20034;-61
2021/09/02 03:19:55;;;;;;;4.35;3.28;;;;;;;13.67;66.35;98587.81;5139884;27;20031;-61
2021/09/02 03:22:21;;;;;;;5.68;3.47;;;;;;;13.70;65.30;98593.69;5150742;27;20076;-62
2021/09/02 03:24:47;;;;;;;6.43;3.35;;;;;;;13.44;64.79;98550.94;5138525;27;20053;-61
2021/09/02 03:27:12;;;;;;;4.30;3.00;;;;;;;13.72;64.70;98588.97;5145651;27;20027;-60
2021/09/02 03:29:37;;;;;;;5.32;3.00;;;;;;;13.74;64.71;98580.72;5144347;27;20147;-61
2021/09/02 03:32:03;;;;;;;5.70;3.40;;;;;;;13.72;64.36;98588.97;5104464;27;20081;-63
2021/09/02 03:34:29;;;;;;;4.03;2.92;;;;;;;13.80;64.02;98598.88;5149198;27;20027;-62
2021/09/02 03:36:55;;;;;;;5.18;3.03;;;;;;;13.87;63.82;98590.94;5139065;27;20030;-62
2021/09/02 03:39:20;;;;;;;6.22;3.40;;;;;;;13.73;64.04;98573.66;5133744;27;20473;-62
2021/09/02 03:41:46;;;;;;;4.05;3.35;;;;;;;13.93;63.79;98598.31;5139109;27;20113;-62
2021/09/02 03:44:12;;;;;;;4.97;3.28;;;;;;;13.92;64.07;98592.06;5136929;27;20404;-63
2021/09/02 03:46:37;;;;;;;4.35;3.25;;;;;;;13.96;63.75;98591.72;5150078;27;20106;-64
2021/09/02 03:49:03;;;;;;;5.75;3.40;;;;;;;13.94;63.54;98594.59;5139659;27;20026;-63
2021/09/02 03:51:29;;;;;;;5.22;3.05;;;;;;;13.76;63.69;98566.09;5143128;27;20488;-63
2021/09/02 03:53:54;;;;;;;5.93;3.40;;;;;;;13.96;64.02;98599.78;5147103;27;20457;-63
2021/09/02 03:56:20;;;;;;;5.85;3.45;;;;;;;13.88;63.71;98596.13;5136284;27;20417;-63
2021/09/02 03:58:45;;;;;;;6.90;3.53;;;;;;;13.88;63.98;98598.00;5148841;27;20025;-63
2021/09/02 04:01:11;;;;;;;5.47;3.58;;;;;;;13.85;63.94;98596.47;5140630;27;20023;-63
2021/09/02 04:03:36;;;;;;;5.90;3.67;;;;;;;13.84;64.29;98589.44;5141607;27;20102;-63
2021/09/02 04:06:02;;;;;;;7.05;3.72;;;;;;;13.81;64.22;98592.47;5147811;27;20118;-63
2021/09/02 04:08:27;;;;;;;7.13;3.60;;;;;;;13.77;64.65;98588.47;5135777;27;20088;-63
2021/09/02 04:10:53;;;;;;;4.60;3.50;;;;;;;13.85;64.48;98588.41;5141078;27;20024;-66
2021/09/02 04:13:18;;;;;;;6.53;3.72;;;;;;;13.89;64.33;98597.81;5130722;27;20030;-64
2021/09/02 04:15:44;;;;;;;6.03;3.83;;;;;;;13.96;64.90;98597.94;5126122;27;20035;-62
2021/09/02 04:18:09;;;;;;;5.15;3.30;;;;;;;14.06;64.38;98592.34;5145064;27;20548;-63
2021/09/02 04:20:35;;;;;;;10.85;3.78;;;;;;;14.11;64.00;98592.66;5117453;27;20022;-64
2021/09/02 04:23:00;;;;;;;9.20;3.95;;;;;;;14.25;63.61;98606.38;5138238;27;20043;-61
2021/09/02 04:25:26;;;;;;;8.00;3.13;;;;;;;14.31;62.74;98603.78;5132246;27;20126;-61
2021/09/02 04:27:52;;;;;;;8.68;3.72;;;;;;;14.38;62.88;98609.31;5123436;27;20051;-64
2021/09/02 04:30:17;;;;;;;11.45;4.50;;;;;;;14.42;62.83;98607.91;5145284;27;20487;-63
2021/09/02 04:32:43;;;;;;;7.32;4.13;;;;;;;14.36;62.90;98600.56;5136364;27;20045;-62
2021/09/02 04:35:10;;;;;;;10.75;3.90;;;;;;;14.42;63.14;98612.47;5144362;27;20037;-63
2021/09/02 04:37:37;;;;;;;6.80;3.70;;;;;;;14.49;62.79;98610.75;5143444;27;20077;-62
2021/09/02 04:40:03;;;;;;;10.30;3.90;;;;;;;14.59;62.35;98616.75;5120328;27;20055;-62
2021/09/02 04:42:30;;;;;;;11.40;4.03;;;;;;;14.65;62.24;98609.78;5146561;27;20030;-63
2021/09/02 04:44:57;;;;;;;4.88;3.78;;;;;;;14.65;61.60;98612.47;5137507;27;20029;-62
2021/09/02 04:47:22;;;;;;;5.70;3.28;;;;;;;14.70;61.71;98604.69;5142721;27;20114;-62
2021/09/02 04:49:48;;;;;;;6.07;3.35;;;;;;;14.81;61.16;98605.31;5145434;27;20689;-62
2021/09/02 04:52:13;;;;;;;5.72;3.85;;;;;;;14.90;61.06;98604.22;5135170;27;20031;-63
2021/09/02 04:54:39;;;;;;;6.30;3.53;;;;;;;15.00;60.70;98603.97;5143809;27;20030;-62
2021/09/02 04:57:05;;;;;;;7.00;4.15;;;;;;;15.04;60.44;98606.13;5127060;27;20026;-63
2021/09/02 04:59:30;;;;;;;9.23;3.58;;;;;;;15.07;59.81;98605.75;5128745;27;20457;-63
2021/09/02 05:01:56;;;;;;;9.75;3.47;;;;;;;15.13;59.69;98616.81;5139353;27;20023;-63
2021/09/02 05:04:21;;;;;;;5.10;3.67;;;;;;;15.10;60.37;98606.41;5116038;27;20571;-62
2021/09/02 05:06:46;;;;;;;6.35;3.55;;;;;;;15.17;59.86;98610.03;5147061;27;20436;-63
2021/09/02 05:09:12;;;;;;;6.47;3.55;;;;;;;15.25;59.35;98615.34;5138791;27;20444;-62
2021/09/02 05:11:37;;;;;;;13.30;4.07;;;;;;;15.38;59.56;98619.25;5139662;27;20038;-62
2021/09/02 05:14:03;;;;;;;10.43;3.88;;;;;;;15.50;58.70;98612.41;5146848;27;20030;-62
2021/09/02 05:16:28;;;;;;;5.38;3.58;;;;;;;15.41;58.36;98579.28;5135097;27;20031;-62
2021/09/02 05:18:54;;;;;;;7.97;3.72;;;;;;;15.67;58.54;98609.50;5139398;27;20380;-63
2021/09/02 05:21:19;;;;;;;5.30;3.65;;;;;;;15.72;58.61;98612.50;5128323;27;20138;-63
2021/09/02 05:23:45;;;;;;;7.18;3.40;;;;;;;15.80;58.06;98617.78;5138550;27;20072;-62
2021/09/02 05:26:10;;;;;;;9.82;3.70;;;;;;;15.68;57.94;98571.53;5148095;27;20037;-65
2021/09/02 05:28:36;;;;;;;9.20;4.10;;;;;;;15.89;57.43;98603.16;5134776;27;20428;-62
2021/09/02 05:31:01;;;;;;;9.75;3.78;;;;;;;15.88;57.44;98601.50;5126318;28;20020;-63
2021/09/02 05:33:27;;;;;;;8.75;3.78;;;;;;;15.84;57.34;98599.34;5141490;27;20026;-64
2021/09/02 05:35:53;;;;;;;6.68;3.60;;;;;;;15.88;57.42;98606.91;5137397;27;20386;-63
2021/09/02 05:38:18;;;;;;;8.70;3.50;;;;;;;15.90;57.22;98598.63;5148587;27;20118;-63
2021/09/02 05:40:45;;;;;;;10.63;4.10;;;;;;;16.09;56.22;98617.97;5135084;27;20027;-64
2021/09/02 05:43:10;;;;;;;4.97;3.67;;;;;;;16.19;55.96;98618.47;5143551;27;20375;-63
2021/09/02 05:45:36;;;;;;;7.07;4.25;;;;;;;16.22;55.81;98618.09;5141683;27;20122;-62
2021/09/02 05:48:03;;;;;;;6.57;3.65;;;;;;;16.30;55.81;98625.25;5136288;27;20042;-64
2021/09/02 05:50:29;;;;;;;7.22;3.63;;;;;;;16.26;55.47;98618.56;5147715;27;20061;-63
2021/09/02 05:52:54;;;;;;;8.90;3.83;;;;;;;16.36;55.33;98627.19;5136986;27;20062;-63
2021/09/02 05:55:21;;;;;;;6.72;3.30;;;;;;;16.34;55.10;98624.69;5142488;27;20028;-62
2021/09/02 05:57:46;;;;;;;6.85;2.75;;;;;;;16.22;53.96;98623.50;5144220;27;20030;-63
2021/09/02 06:00:13;;;;;;;5.05;2.42;;;;;;;16.26;53.81;98624.78;5134979;27;20038;-63
2021/09/02 06:02:38;;;;;;;3.75;2.38;;;;;;;16.41;53.00;98632.03;5147845;27;20019;-62
2021/09/02 06:05:05;;;;;;;4.78;2.42;;;;;;;16.65;52.52;98637.06;5138011;27;20491;-62
2021/09/02 06:07:31;;;;;;;4.53;2.05;;;;;;;16.87;51.66;98637.06;5140581;27;20476;-63
2021/09/02 06:09:56;;;;;;;3.28;2.00;;;;;;;17.04;50.80;98642.22;5145941;27;20061;-62
2021/09/02 06:12:22;;;;;;;5.90;2.28;;;;;;;17.20;50.56;98647.31;5134340;27;20472;-65
2021/09/02 06:14:47;;;;;;;4.70;2.20;;;;;;;17.50;49.86;98641.75;5147072;27;20034;-62
2021/09/02 06:17:12;;;;;;;6.30;2.22;;;;;;;17.74;48.98;98642.28;5139627;27;20023;-63
2021/09/02 06:19:38;;;;;;;4.70;2.25;;;;;;;17.92;48.84;98639.03;5129988;27;20035;-65
2021/09/02 06:22:04;;;;;;;2.70;2.05;;;;;;;18.08;48.47;98648.72;5145566;27;20035;-63
2021/09/02 06:24:29;;;;;;;4.63;2.17;;;;;;;18.11;47.39;98633.09;5119889;27;20350;-63
2021/09/02 06:26:55;;;;;;;5.82;2.58;;;;;;;18.30;47.67;98651.31;5149416;27;20034;-63
2021/09/02 06:29:21;;;;;;;5.35;2.63;;;;;;;18.36;47.61;98650.50;5133867;27;20464;-65
2021/09/02 06:31:46;;;;;;;3.40;2.35;;;;;;;18.26;47.90;98650.06;5133009;27;20027;-65
2021/09/02 06:34:12;;;;;;;6.65;2.80;;;;;;;18.25;47.36;98647.53;5151413;27;20046;-64
2021/09/02 06:36:37;;;;;;;5.53;2.63;;;;;;;18.12;48.40;98648.31;5137796;27;20462;-65
2021/09/02 06:39:03;;;;;;;3.67;2.30;;;;;;;18.12;47.85;98660.00;5132731;27;20027;-64
2021/09/02 06:41:28;;;;;;;3.08;2.00;;;;;;;18.21;47.56;98658.78;5131767;27;20039;-64
2021/09/02 06:43:54;;;;;;;3.65;2.22;;;;;;;18.42;46.50;98659.69;5129982;27;20042;-65
2021/09/02 06:46:20;;;;;;;3.95;2.60;;;;;;;18.59;45.82;98638.47;5132548;27;20039;-65
2021/09/02 06:48:45;;;;;;;3.40;2.22;;;;;;;19.26;45.01;98662.13;5130707;27;20117;-63
2021/09/02 06:51:11;;;;;;;2.58;2.20;;;;;;;19.53;44.27;98662.09;5131601;27;20043;-65
2021/09/02 06:53:36;;;;;;;6.90;2.60;;;;;;;19.92;43.44;98668.53;5129224;27;20063;-65
2021/09/02 06:56:02;;;;;;;3.53;2.30;;;;;;;19.92;43.10;98671.25;5113915;27;20452;-63
2021/09/02 06:58:27;;;;;;;3.30;2.28;;;;;;;19.98;42.72;98677.72;5134622;27;20190;-65
2021/09/02 07:00:53;;;;;;;4.80;2.25;;;;;;;20.10;42.08;98668.88;5131109;27;20047;-64
2021/09/02 07:03:18;;;;;;;3.80;2.03;;;;;;;20.35;41.05;98683.41;5129757;27;20031;-66
2021/09/02 07:05:43;;;;;;;4.45;1.92;;;;;;;21.16;40.07;98677.53;5133857;27;20027;-65
2021/09/02 07:08:13;;;;;;;5.13;2.30;;;;;;;22.17;37.82;98675.72;5131375;27;20051;-62
2021/09/02 07:10:38;;;;;;;2.55;2.13;;;;;;;25.22;32.26;98652.59;5150978;27;20467;-63
2021/09/02 07:13:04;;;;;;;3.17;2.20;;;;;;;29.45;26.03;98654.53;5139665;27;20022;-63
2021/09/02 07:15:30;;;;;;;3.40;1.80;;;;;;;32.25;21.51;98658.19;5143571;27;20075;-63
2021/09/02 07:17:57;;;;;;;2.72;1.92;;;;;;;35.14;18.60;98665.16;5147993;27;20117;-61
2021/09/02 07:20:22;;;;;;;5.68;2.03;;;;;;;37.08;15.97;98669.47;5137338;27;20868;-61
2021/09/02 07:22:48;;;;;;;3.38;2.20;;;;;;;38.86;14.53;98679.56;5144222;27;20145;-62
2021/09/02 07:25:13;;;;;;;3.15;1.80;;;;;;;39.86;13.33;98681.56;5134024;27;20111;-60
2021/09/02 07:27:38;;;;;;;2.20;1.95;;;;;;;40.14;12.88;98649.22;5133597;27;20046;-61
2021/09/02 07:30:05;;;;;;;5.07;1.73;;;;;;;39.17;13.58;98683.94;5131463;27;20075;-60
2021/09/02 07:32:30;;;;;;;1.83;1.70;;;;;;;37.12;14.62;98677.97;5131401;27;20028;-61
2021/09/02 07:34:56;;;;;;;2.60;1.95;;;;;;;36.03;15.95;98678.47;5134216;27;20479;-62
2021/09/02 07:37:22;;;;;;;3.95;2.20;;;;;;;33.11;18.82;98696.06;5134441;27;20027;-61
2021/09/02 07:39:47;;;;;;;2.28;1.52;;;;;;;32.67;19.78;98689.78;5133372;27;20031;-62
2021/09/02 07:42:13;;;;;;;3.72;1.92;;;;;;;33.01;19.04;98680.44;5133295;27;20429;-61
2021/09/02 07:44:38;;;;;;;3.38;1.42;;;;;;;33.82;18.42;98686.84;5133611;27;20042;-59
2021/09/02 07:47:05;;;;;;;2.55;1.60;;;;;;;34.98;16.95;98685.00;5133596;27;20031;-60
2021/09/02 07:49:31;;;;;;;2.45;1.48;;;;;;;36.91;15.05;98678.66;5136296;27;20113;-60
2021/09/02 07:51:56;;;;;;;2.25;1.67;;;;;;;36.10;15.27;98678.00;5145102;27;20417;-62
2021/09/02 07:54:22;;;;;;;2.42;1.58;;;;;;;33.22;18.05;98688.41;5139571;27;20102;-61
2021/09/02 07:56:47;;;;;;;1.77;1.48;;;;;;;29.71;21.27;98684.81;5132942;27;20408;-61
2021/09/02 07:59:13;;;;;;;2.33;1.55;;;;;;;27.13;24.99;98690.94;5132550;27;20430;-64
2021/09/02 08:01:38;;;;;;;3.47;1.75;;;;;;;25.63;28.30;98696.25;5132078;27;20118;-62
2021/09/02 08:04:04;;;;;;;5.65;1.77;;;;;;;24.70;29.02;98697.38;5132417;27;20027;-60
2021/09/02 08:06:30;;;;;;;3.35;1.70;;;;;;;23.82;30.94;98700.19;5132811;27;20030;-58
2021/09/02 08:08:55;;;;;;;1.95;1.50;;;;;;;22.78;32.01;98703.91;5132466;27;20030;-56
2021/09/02 08:11:22;;;;;;;3.85;1.92;;;;;;;21.64;34.68;98716.91;5132737;27;20092;-60
2021/09/02 08:13:47;;;;;;;2.70;1.52;;;;;;;20.77;36.48;98718.34;5132840;27;20028;-62
2021/09/02 08:16:13;;;;;;;2.78;1.63;;;;;;;20.15;38.16;98710.66;5132875;27;20364;-56
2021/09/02 08:18:38;;;;;;;2.15;1.40;;;;;;;19.81;39.25;98715.34;5132399;27;20023;-60
2021/09/02 08:21:04;;;;;;;2.85;1.55;;;;;;;19.44;39.20;98699.50;5133051;27;20033;-59
2021/09/02 08:23:29;;;;;;;4.70;1.60;;;;;;;19.21;40.14;98710.75;5120228;27;20055;-62
2021/09/02 08:25:55;;;;;;;3.53;1.77;;;;;;;18.91;40.93;98711.09;5132002;27;20031;-64
2021/09/02 08:28:20;;;;;;;4.20;1.83;;;;;;;18.80;41.20;98704.41;5133055;27;20062;-63
2021/09/02 08:30:46;;;;;;;2.40;1.48;;;;;;;18.83;40.83;98706.72;5132900;27;20490;-61
2021/09/02 08:33:11;;;;;;;4.07;1.90;;;;;;;19.12;40.25;98695.72;5132845;27;20392;-62
2021/09/02 08:35:37;;;;;;;3.20;1.80;;;;;;;19.40;39.62;98708.25;5132275;27;20424;-62
2021/09/02 08:38:06;;;;;;;2.47;1.70;;;;;;;19.51;39.50;98716.59;5132975;27;20027;-65
2021/09/02 08:40:41;;;;;;;3.15;2.03;;;;;;;19.35;40.35;98707.00;5132325;27;20523;-61
2021/09/02 08:43:07;;;;;;;5.20;1.80;;;;;;;19.00;41.41;98704.47;5132065;27;20114;-64
2021/09/02 08:45:33;;;;;;;4.25;1.83;;;;;;;18.65;42.87;98708.13;5131665;27;20484;-62
2021/09/02 08:48:02;;;;;;;2.55;1.77;;;;;;;18.25;43.41;98701.72;5132906;27;20038;-66
2021/09/02 08:50:31;;;;;;;2.08;1.70;;;;;;;18.02;44.16;98719.09;5132743;27;20027;-64
2021/09/02 08:52:57;;;;;;;2.80;1.90;;;;;;;17.78;44.20;98707.69;5132137;27;20038;-66
2021/09/02 08:55:23;;;;;;;4.00;1.75;;;;;;;17.63;46.16;98705.94;5132468;27;20023;-65
2021/09/02 08:57:50;;;;;;;4.05;1.95;;;;;;;17.63;46.46;98727.59;5133008;27;20111;-63
2021/09/02 09:00:17;;;;;;;4.30;1.92;;;;;;;17.46;47.21;98720.78;5132424;27;20030;-68
2021/09/02 09:02:45;;;;;;;3.72;2.10;;;;;;;17.22;48.76;98722.88;5132519;27;20110;-68
2021/09/02 09:05:13;;;;;;;5.53;2.25;;;;;;;17.11;48.64;98715.28;5130746;27;20059;-63
2021/09/02 09:07:47;;;;;;;3.75;2.13;;;;;;;17.22;48.63;98725.59;5132467;27;20023;-65
2021/09/02 09:10:17;;;;;;;2.95;2.05;;;;;;;17.34;49.37;98715.06;5132451;27;20031;-64
2021/09/02 09:12:46;;;;;;;3.28;2.45;;;;;;;17.48;49.10;98721.44;5132382;27;20034;-71
2021/09/02 09:15:22;;;;;;;5.80;2.42;;;;;;;18.02;48.50;98716.41;5132325;27;20038;-61
2021/09/02 09:17:49;;;;;;;6.78;1.90;;;;;;;18.44;46.98;98711.81;5132266;27;20035;-64
2021/09/02 09:20:20;;;;;;;3.58;2.00;;;;;;;18.80;44.91;98707.94;5130869;27;20035;-65
2021/09/02 09:22:56;;;;;;;2.50;1.80;;;;;;;18.84;44.05;98694.81;5131756;27;20100;-64
2021/09/02 09:25:22;;;;;;;5.50;1.98;;;;;;;18.72;44.30;98680.22;5131901;27;20047;-70
2021/09/02 09:27:52;;;;;;;3.35;2.00;;;;;;;18.80;43.80;98683.53;5131807;27;20043;-66
2021/09/02 09:30:27;;;;;;;2.63;1.88;;;;;;;19.07;43.88;98685.50;5131780;27;20088;-65
2021/09/02 09:33:04;;;;;;;2.47;2.10;;;;;;;19.18;41.75;98689.47;5131863;27;20042;-61
2021/09/02 09:35:36;;;;;;;3.20;1.85;;;;;;;19.19;42.24;98702.00;5131762;27;20019;-64
2021/09/02 09:38:10;;;;;;;3.63;1.90;;;;;;;19.32;41.52;98710.16;5130490;28;20114;-64
2021/09/02 09:40:38;;;;;;;3.33;1.63;;;;;;;19.27;40.24;98688.22;5123664;27;20119;-68
2021/09/02 09:43:13;;;;;;;3.80;1.52;;;;;;;19.04;39.17;98670.44;5129947;27;20027;-66
2021/09/02 09:45:49;;;;;;;3.33;1.60;;;;;;;19.22;39.01;98701.56;5132122;27;20058;-66
2021/09/02 09:48:40;;;;;;;3.97;1.60;;;;;;;19.19;39.30;98712.84;5131938;27;20827;-69
2021/09/02 09:51:13;;;;;;;4.75;1.98;;;;;;;18.80;41.04;98721.50;5130721;28;20035;-69
2021/09/02 09:53:42;;;;;;;2.67;1.55;;;;;;;18.07;44.26;98741.84;5134558;27;20393;-69
2021/09/02 09:56:09;;;;;;;3.42;1.65;;;;;;;17.29;46.34;98733.75;5134980;27;20129;-68
2021/09/02 09:58:35;;;;;;;4.55;1.92;;;;;;;16.68;49.51;98735.84;5136278;27;20080;-70
2021/09/02 10:01:04;;;;;;;3.65;1.70;;;;;;;16.46;50.00;98741.19;5135970;27;20034;-69
2021/09/02 10:03:31;;;;;;;2.25;1.73;;;;;;;16.10;51.26;98711.44;5135860;27;20098;-68
2021/09/02 10:06:05;;;;;;;3.75;2.17;;;;;;;16.35;51.41;98747.06;5111195;27;20516;-68
2021/09/02 10:08:41;;;;;;;5.88;1.88;;;;;;;16.34;52.99;98739.97;5134284;27;20057;-68
2021/09/02 10:11:15;;;;;;;4.63;2.00;;;;;;;16.42;52.82;98742.59;5134295;27;20544;-70
2021/09/02 10:13:42;;;;;;;3.38;2.15;;;;;;;16.43;52.33;98746.97;5134042;27;20027;-68
2021/09/02 10:16:08;;;;;;;2.10;1.90;;;;;;;16.50;52.44;98728.97;5135741;27;20031;-69
2021/09/02 10:18:40;;;;;;;3.47;2.08;;;;;;;16.64;49.76;98713.75;5135699;27;20027;-70
2021/09/02 10:21:07;;;;;;;3.03;2.30;;;;;;;17.00;51.85;98731.00;5134463;27;20028;-69
2021/09/02 10:23:33;;;;;;;5.50;2.00;;;;;;;16.88;48.82;98687.38;5133955;27;20047;-69
2021/09/02 10:25:58;;;;;;;4.28;2.55;;;;;;;17.28;49.36;98730.22;5135868;27;20495;-70
2021/09/02 10:28:30;;;;;;;4.55;2.58;;;;;;;17.63;48.71;98738.41;5116842;27;20039;-69
2021/09/02 10:30:58;;;;;;;6.75;3.15;;;;;;;17.93;46.89;98737.34;5135228;27;20087;-73
2021/09/02 10:33:44;;;;;;;4.63;2.20;;;;;;;18.50;45.83;98732.66;5135949;27;20027;-71
2021/09/02 10:36:09;;;;;;;3.08;1.70;;;;;;;18.63;42.83;98723.75;5134106;27;20107;-70
2021/09/02 10:38:38;;;;;;;2.72;1.90;;;;;;;18.93;43.09;98730.72;5133870;27;20074;-70
2021/09/02 10:41:04;;;;;;;3.28;2.05;;;;;;;19.07;40.93;98732.47;5125275;27;20076;-70
2021/09/02 10:43:56;;;;;;;2.70;1.50;;;;;;;19.23;40.75;98733.09;5135347;27;20023;-70
2021/09/02 10:46:25;;;;;;;2.00;1.65;;;;;;;19.27;41.14;98741.66;5117225;27;20110;-70
2021/09/02 10:48:51;;;;;;;2.83;1.95;;;;;;;19.38;41.03;98740.19;5134702;27;20035;-70
2021/09/02 10:51:36;;;;;;;3.15;1.77;;;;;;;19.69;40.11;98749.59;5135501;27;20038;-69
2021/09/02 10:54:06;;;;;;;2.78;1.85;;;;;;;19.55;39.53;98744.19;5135387;27;20031;-69
2021/09/02 10:56:56;;;;;;;3.13;1.77;;;;;;;19.45;39.77;98750.03;5117772;27;20385;-71
2021/09/02 10:59:52;;;;;;;4.28;1.85;;;;;;;19.18;41.53;98752.72;5100102;27;20061;-69
2021/09/02 11:02:17;;;;;;;3.43;1.90;;;;;;;18.96;42.80;98743.03;5135071;27;20019;-68
2021/09/02 11:04:44;;;;;;;3.40;1.63;;;;;;;18.84;43.03;98745.53;5132695;27;20033;-69
2021/09/02 11:07:11;;;;;;;2.05;1.60;;;;;;;18.68;42.18;98717.72;5133445;27;20027;-69
2021/09/02 11:09:40;;;;;;;2.90;1.70;;;;;;;18.87;41.84;98758.66;5134153;27;20042;-69
2021/09/02 11:12:11;;;;;;;2.03;1.55;;;;;;;18.61;43.13;98771.91;5134911;27;20027;-70
2021/09/02 11:14:47;;;;;;;6.28;1.48;;;;;;;18.51;43.37;98764.16;5133505;27;20532;-69
2021/09/02 11:17:13;;;;;;;4.30;1.42;;;;;;;18.27;44.35;98764.66;5134061;27;20460;-68
2021/09/02 11:19:41;;;;;;;11.48;2.13;;;;;;;18.14;45.88;98770.84;5132583;27;20033;-70
2021/09/02 11:22:17;;;;;;;4.70;1.80;;;;;;;18.24;45.63;98776.75;5120191;27;20027;-70
2021/09/02 11:24:45;;;;;;;4.63;1.70;;;;;;;18.30;45.66;98772.38;5112917;28;20438;-71
2021/09/02 11:27:15;;;;;;;3.28;2.05;;;;;;;18.36;44.76;98761.59;5113742;28;20064;-70
2021/09/02 11:29:40;;;;;;;5.20;2.90;;;;;;;18.46;44.20;98763.94;5113349;27;20024;-69
2021/09/02 11:32:24;;;;;;;3.58;2.38;;;;;;;18.62;44.82;98776.28;5112167;28;20034;-70
2021/09/02 11:34:59;;;;;;;7.20;2.38;;;;;;;18.78;44.72;98766.97;5113685;28;20032;-70